createdAt,value
2023-04-27T00:01:58.164Z,1.90
2023-04-27T00:04:28.786Z,1.75
2023-04-27T00:06:55.892Z,2.15
2023-04-27T00:09:22.916Z,2.20
2023-04-27T00:11:49.978Z,2.00
2023-04-27T00:14:16.827Z,1.90
2023-04-27T00:16:43.978Z,2.63
2023-04-27T00:19:11.122Z,2.35
2023-04-27T00:21:38.003Z,2.50
2023-04-27T00:24:05.257Z,2.30
2023-04-27T00:26:31.998Z,2.40
2023-04-27T00:28:59.905Z,2.20
2023-04-27T00:31:26.878Z,2.42
2023-04-27T00:33:53.801Z,2.60
2023-04-27T00:36:20.585Z,2.15
2023-04-27T00:38:48.424Z,2.17
2023-04-27T00:41:15.582Z,2.53
2023-04-27T00:43:44.197Z,2.85
2023-04-27T00:46:13.335Z,2.65
2023-04-27T00:48:41.829Z,2.33
2023-04-27T00:51:08.794Z,2.42
2023-04-27T00:53:36.963Z,2.60
2023-04-27T00:56:05.647Z,2.50
2023-04-27T00:58:33.007Z,2.80
2023-04-27T01:01:00.904Z,2.65
2023-04-27T01:03:28.103Z,2.75
2023-04-27T01:05:56.904Z,2.63
2023-04-27T01:08:24.667Z,2.67
2023-04-27T01:10:51.988Z,2.90
2023-04-27T01:13:19.026Z,3.30
2023-04-27T01:15:46.199Z,3.13
2023-04-27T01:18:12.981Z,3.42
2023-04-27T01:20:40.261Z,2.92
2023-04-27T01:23:15.400Z,2.88
2023-04-27T01:25:43.902Z,3.38
2023-04-27T01:28:10.835Z,3.05
2023-04-27T01:30:37.751Z,2.95
2023-04-27T01:33:04.726Z,2.97
2023-04-27T01:35:31.849Z,3.10
2023-04-27T01:38:00.535Z,3.08
2023-04-27T01:40:27.769Z,3.40
2023-04-27T01:42:54.572Z,4.22
2023-04-27T01:45:21.550Z,3.83
2023-04-27T01:47:51.690Z,3.33
2023-04-27T01:52:47.586Z,3.80
2023-04-27T01:55:14.979Z,3.03
2023-04-27T01:57:42.541Z,3.47
2023-04-27T02:00:09.912Z,3.63
2023-04-27T02:02:51.188Z,3.80
2023-04-27T02:05:18.520Z,4.10
2023-04-27T02:07:46.365Z,3.80
2023-04-27T02:10:13.285Z,3.47
2023-04-27T02:12:40.127Z,3.70
2023-04-27T02:15:08.730Z,4.00
2023-04-27T02:17:36.254Z,3.90
2023-04-27T02:20:03.170Z,4.72
2023-04-27T02:22:30.083Z,3.95
2023-04-27T02:24:57.006Z,4.55
2023-04-27T02:27:23.986Z,3.80
2023-04-27T02:29:51.300Z,3.47
2023-04-27T02:32:18.764Z,3.20
2023-04-27T02:34:45.607Z,3.33
2023-04-27T02:37:12.592Z,3.90
2023-04-27T02:39:39.344Z,3.30
2023-04-27T02:42:06.742Z,3.03
2023-04-27T02:44:33.625Z,3.65
2023-04-27T02:47:00.608Z,3.75
2023-04-27T02:49:27.777Z,3.65
2023-04-27T02:51:54.675Z,3.80
2023-04-27T02:54:21.622Z,3.33
2023-04-27T02:56:48.679Z,3.50
2023-04-27T02:59:15.839Z,4.40
2023-04-27T03:01:43.026Z,3.90
2023-04-27T03:04:10.783Z,4.00
2023-04-27T03:06:37.986Z,3.97
2023-04-27T03:09:05.488Z,4.18
2023-04-27T03:11:32.471Z,3.97
2023-04-27T03:13:59.386Z,4.20
2023-04-27T03:16:26.285Z,4.63
2023-04-27T03:18:53.117Z,5.25
2023-04-27T03:21:20.017Z,4.78
2023-04-27T03:23:49.310Z,4.93
2023-04-27T03:26:16.672Z,5.40
2023-04-27T03:28:43.685Z,5.10
2023-04-27T03:31:12.641Z,6.35
2023-04-27T03:33:40.401Z,7.07
2023-04-27T03:36:08.676Z,6.70
2023-04-27T03:38:35.997Z,7.55
2023-04-27T03:41:03.438Z,7.75
2023-04-27T03:43:30.792Z,7.35
2023-04-27T03:45:57.795Z,7.15
2023-04-27T03:48:25.196Z,7.70
2023-04-27T03:50:54.649Z,7.60
2023-04-27T03:53:21.681Z,7.72
2023-04-27T03:55:49.511Z,7.10
2023-04-27T03:58:17.929Z,6.22
2023-04-27T04:01:05.206Z,6.00
2023-04-27T04:03:32.388Z,6.15
2023-04-27T04:05:59.444Z,5.65
2023-04-27T04:08:26.502Z,5.53
2023-04-27T04:10:54.032Z,6.05
2023-04-27T04:13:21.010Z,4.40
2023-04-27T04:15:47.942Z,4.78
2023-04-27T04:18:15.005Z,3.95
2023-04-27T04:20:42.462Z,5.25
2023-04-27T04:23:09.410Z,6.15
2023-04-27T04:25:36.546Z,6.05
2023-04-27T04:28:03.749Z,6.07
2023-04-27T04:30:30.878Z,5.20
2023-04-27T04:35:42.543Z,5.10
2023-04-27T04:38:10.862Z,4.50
2023-04-27T04:40:39.713Z,4.47
2023-04-27T04:43:06.879Z,3.42
2023-04-27T04:45:33.790Z,4.60
2023-04-27T04:48:01.593Z,4.05
2023-04-27T04:50:29.282Z,10.15
2023-04-27T04:52:59.669Z,8.52
2023-04-27T04:55:28.702Z,5.57
2023-04-27T04:57:55.905Z,4.93
2023-04-27T05:00:22.993Z,5.05
2023-04-27T05:02:50.572Z,5.88
2023-04-27T05:05:17.640Z,3.63
2023-04-27T05:07:44.981Z,3.58
2023-04-27T05:10:12.456Z,4.20
2023-04-27T05:12:39.642Z,5.50
2023-04-27T05:15:07.550Z,5.60
2023-04-27T05:17:34.384Z,4.47
2023-04-27T05:20:01.363Z,4.97
2023-04-27T05:22:28.518Z,5.10
2023-04-27T05:24:55.975Z,5.25
2023-04-27T05:27:23.136Z,5.38
2023-04-27T05:29:50.683Z,3.80
2023-04-27T05:32:17.452Z,4.25
2023-04-27T05:34:46.654Z,4.88
2023-04-27T05:37:15.538Z,4.43
2023-04-27T05:39:42.482Z,5.05
2023-04-27T05:42:09.476Z,4.78
2023-04-27T05:44:36.645Z,3.72
2023-04-27T05:47:03.735Z,4.72
2023-04-27T05:49:30.999Z,4.50
2023-04-27T05:51:59.147Z,4.05
2023-04-27T05:54:27.658Z,3.75
2023-04-27T05:56:54.958Z,3.58
2023-04-27T05:59:22.340Z,3.80
2023-04-27T06:01:49.545Z,4.03
2023-04-27T06:04:16.727Z,3.28
2023-04-27T06:06:44.907Z,4.25
2023-04-27T06:09:12.387Z,4.00
2023-04-27T06:11:39.635Z,3.95
2023-04-27T06:14:06.667Z,3.90
2023-04-27T06:16:33.665Z,4.38
2023-04-27T06:19:00.727Z,4.07
2023-04-27T06:21:28.458Z,4.57
2023-04-27T06:23:55.654Z,3.75
2023-04-27T06:26:22.677Z,3.95
2023-04-27T06:28:49.546Z,3.55
2023-04-27T06:31:17.182Z,3.83
2023-04-27T06:33:44.265Z,3.80
2023-04-27T06:36:11.974Z,3.72
2023-04-27T06:38:38.971Z,3.33
2023-04-27T06:41:06.138Z,3.35
2023-04-27T06:43:33.201Z,3.15
2023-04-27T06:46:00.251Z,3.72
2023-04-27T06:48:27.370Z,3.35
2023-04-27T06:50:54.252Z,3.35
2023-04-27T06:53:21.286Z,2.83
2023-04-27T06:55:48.823Z,2.90
2023-04-27T06:58:15.959Z,3.80
2023-04-27T07:00:43.027Z,3.90
2023-04-27T07:03:10.056Z,3.20
2023-04-27T07:05:37.510Z,4.30
2023-04-27T07:08:07.942Z,5.13
2023-04-27T07:13:03.233Z,2.95
2023-04-27T07:15:31.857Z,3.55
2023-04-27T07:17:58.919Z,2.70
2023-04-27T07:20:26.962Z,3.65
2023-04-27T07:22:53.835Z,3.17
2023-04-27T07:25:21.793Z,2.50
2023-04-27T07:27:48.783Z,2.33
2023-04-27T07:30:17.332Z,2.78
2023-04-27T07:32:44.488Z,2.97
2023-04-27T07:35:13.603Z,3.17
2023-04-27T07:37:40.543Z,4.05
2023-04-27T07:40:17.457Z,2.63
2023-04-27T07:42:46.368Z,2.90
2023-04-27T07:45:14.190Z,3.30
2023-04-27T07:47:41.227Z,3.08
2023-04-27T07:50:08.699Z,2.03
2023-04-27T07:52:36.082Z,2.40
2023-04-27T07:55:03.997Z,2.13
2023-04-27T07:57:31.033Z,2.63
2023-04-27T07:59:58.305Z,2.30
2023-04-27T08:02:30.729Z,2.60
2023-04-27T08:04:58.194Z,3.33
2023-04-27T08:07:26.042Z,2.58
2023-04-27T08:09:53.294Z,2.78
2023-04-27T08:12:20.232Z,5.97
2023-04-27T08:14:47.644Z,2.75
2023-04-27T08:17:14.890Z,2.55
2023-04-27T08:19:41.652Z,2.20
2023-04-27T08:22:08.626Z,2.83
2023-04-27T08:24:36.268Z,2.33
2023-04-27T08:27:05.825Z,2.08
2023-04-27T08:29:33.047Z,2.20
2023-04-27T08:32:02.103Z,2.50
2023-04-27T08:34:29.716Z,3.35
2023-04-27T08:36:57.251Z,2.40
2023-04-27T08:39:25.095Z,2.45
2023-04-27T08:41:52.116Z,2.42
2023-04-27T08:44:19.093Z,2.40
2023-04-27T08:46:46.773Z,6.60
2023-04-27T08:49:16.549Z,2.92
2023-04-27T08:51:44.734Z,3.05
2023-04-27T08:54:11.768Z,7.03
2023-04-27T08:56:39.437Z,4.30
2023-04-27T08:59:17.794Z,2.97
2023-04-27T09:01:49.325Z,2.38
2023-04-27T09:04:18.284Z,3.67
2023-04-27T09:06:46.016Z,2.05
2023-04-27T09:09:23.525Z,1.65
2023-04-27T09:11:51.517Z,3.20
2023-04-27T09:14:25.020Z,1.92
2023-04-27T09:16:59.738Z,4.15
2023-04-27T09:19:28.846Z,2.00
2023-04-27T09:22:09.860Z,2.00
2023-04-27T09:24:37.903Z,2.42
2023-04-27T09:27:05.374Z,2.97
2023-04-27T09:29:33.909Z,1.83
2023-04-27T09:32:01.047Z,2.00
2023-04-27T09:34:38.417Z,2.10
2023-04-27T09:37:05.936Z,2.50
2023-04-27T09:39:33.598Z,2.85
2023-04-27T09:42:01.215Z,2.63
2023-04-27T09:44:29.807Z,2.78
2023-04-27T09:46:59.939Z,2.60
2023-04-27T09:49:31.437Z,2.55
2023-04-27T09:51:59.001Z,2.30
2023-04-27T09:54:33.788Z,2.10
2023-04-27T09:57:28.859Z,2.20
2023-04-27T10:00:36.039Z,2.50
2023-04-27T10:03:24.272Z,2.00
2023-04-27T10:06:09.062Z,1.95
2023-04-27T10:08:36.440Z,1.98
2023-04-27T10:11:15.375Z,2.60
2023-04-27T10:13:54.448Z,2.28
2023-04-27T10:16:22.291Z,2.50
2023-04-27T10:18:55.585Z,2.17
2023-04-27T10:21:23.870Z,4.03
2023-04-27T10:23:52.698Z,2.50
2023-04-27T10:26:24.123Z,2.28
2023-04-27T10:29:09.212Z,2.15
2023-04-27T10:31:36.361Z,3.00
2023-04-27T10:34:10.844Z,1.75
2023-04-27T10:36:39.398Z,1.63
2023-04-27T10:39:27.601Z,2.45
2023-04-27T10:41:59.951Z,2.10
2023-04-27T10:44:32.069Z,1.70
2023-04-27T10:47:01.617Z,2.13
2023-04-27T10:49:30.854Z,1.73
2023-04-27T10:51:59.984Z,1.70
2023-04-27T10:54:28.657Z,2.13
2023-04-27T10:57:04.129Z,2.35
2023-04-27T10:59:31.307Z,2.13
2023-04-27T11:01:58.527Z,2.15
2023-04-27T11:04:44.290Z,2.20
2023-04-27T11:07:11.495Z,1.83
2023-04-27T11:09:39.692Z,2.00
2023-04-27T11:12:08.571Z,1.90
2023-04-27T11:14:37.004Z,1.80
2023-04-27T11:17:04.839Z,1.95
2023-04-27T11:19:32.304Z,2.22
2023-04-27T11:22:06.793Z,2.33
2023-04-27T11:24:34.153Z,2.10
2023-04-27T11:27:01.160Z,1.95
2023-04-27T11:29:38.380Z,1.92
2023-04-27T11:32:06.128Z,1.92
2023-04-27T11:34:37.106Z,2.30
2023-04-27T11:37:17.977Z,1.92
2023-04-27T11:39:46.143Z,1.88
2023-04-27T11:42:19.749Z,2.22
2023-04-27T11:44:56.190Z,1.90
2023-04-27T11:47:25.264Z,2.38
2023-04-27T11:49:54.710Z,2.40
2023-04-27T11:52:22.774Z,2.17
2023-04-27T11:54:58.660Z,2.08
2023-04-27T11:57:29.543Z,1.80
2023-04-27T11:59:58.837Z,2.10
2023-04-27T12:02:27.410Z,3.20
2023-04-27T12:04:54.767Z,15.63
2023-04-27T12:07:21.944Z,5.05
2023-04-27T12:09:50.059Z,4.38
2023-04-27T12:12:18.634Z,2.45
2023-04-27T12:14:46.043Z,4.90
2023-04-27T12:17:13.326Z,2.40
2023-04-27T12:19:40.353Z,2.17
2023-04-27T12:22:08.600Z,2.03
2023-04-27T12:24:36.432Z,1.92
2023-04-27T12:27:04.472Z,2.65
2023-04-27T12:29:34.418Z,2.40
2023-04-27T12:32:01.536Z,2.65
2023-04-27T12:34:28.686Z,1.90
2023-04-27T12:36:56.320Z,2.20
2023-04-27T12:39:26.999Z,2.97
2023-04-27T12:41:54.365Z,2.30
2023-04-27T12:44:22.117Z,2.35
2023-04-27T12:46:49.564Z,3.00
2023-04-27T12:49:17.702Z,3.08
2023-04-27T12:51:47.130Z,2.50
2023-04-27T12:54:14.432Z,3.00
2023-04-27T12:56:42.092Z,2.83
2023-04-27T12:59:09.381Z,2.63
2023-04-27T13:01:36.696Z,2.90
2023-04-27T13:04:06.238Z,2.88
2023-04-27T13:06:33.250Z,3.10
2023-04-27T13:09:00.415Z,3.13
2023-04-27T13:11:27.557Z,6.75
2023-04-27T13:13:55.324Z,8.55
2023-04-27T13:16:25.380Z,4.35
2023-04-27T13:18:53.607Z,5.80
2023-04-27T13:21:21.306Z,10.18
2023-04-27T13:23:51.460Z,8.73
2023-04-27T13:26:19.022Z,4.47
2023-04-27T13:28:46.357Z,2.97
2023-04-27T13:31:16.256Z,3.25
2023-04-27T13:33:44.385Z,2.92
2023-04-27T13:36:12.770Z,3.53
2023-04-27T13:38:39.968Z,3.60
2023-04-27T13:41:08.118Z,3.33
2023-04-27T13:43:35.836Z,139.48
2023-04-27T13:46:03.211Z,35.30
2023-04-27T13:48:30.904Z,6.53
2023-04-27T13:50:58.596Z,3.38
2023-04-27T13:53:25.977Z,3.38
2023-04-27T13:55:59.330Z,3.17
2023-04-27T13:58:30.178Z,2.20
2023-04-27T14:00:58.136Z,2.85
2023-04-27T14:03:25.874Z,2.80
2023-04-27T14:05:52.852Z,2.60
2023-04-27T14:08:19.970Z,2.40
2023-04-27T14:10:46.942Z,1.90
2023-04-27T14:13:14.395Z,2.65
2023-04-27T14:15:42.049Z,2.75
2023-04-27T14:18:10.091Z,2.53
2023-04-27T14:20:38.311Z,2.65
2023-04-27T14:23:06.348Z,2.80
2023-04-27T14:25:34.935Z,3.65
2023-04-27T14:28:04.714Z,2.95
2023-04-27T14:30:32.357Z,3.20
2023-04-27T14:32:59.574Z,4.15
2023-04-27T14:35:27.808Z,2.50
2023-04-27T14:37:56.930Z,2.92
2023-04-27T14:40:24.398Z,2.60
2023-04-27T14:42:51.167Z,2.42
2023-04-27T14:45:18.999Z,2.20
2023-04-27T14:47:46.180Z,1.80
2023-04-27T14:50:13.487Z,2.92
2023-04-27T14:52:41.087Z,3.53
2023-04-27T14:55:08.477Z,2.83
2023-04-27T14:57:36.847Z,2.92
2023-04-27T15:00:10.102Z,2.17
2023-04-27T15:02:38.025Z,2.20
2023-04-27T15:05:06.205Z,2.85
2023-04-27T15:07:33.216Z,2.78
2023-04-27T15:10:00.298Z,1.92
2023-04-27T15:12:27.357Z,3.10
2023-04-27T15:14:54.405Z,4.60
2023-04-27T15:17:21.579Z,2.63
2023-04-27T15:19:48.650Z,3.22
2023-04-27T15:22:15.425Z,3.58
2023-04-27T15:24:42.613Z,2.20
2023-04-27T15:27:09.966Z,3.53
2023-04-27T15:29:42.371Z,3.00
2023-04-27T15:32:09.351Z,3.22
2023-04-27T15:34:37.054Z,3.75
2023-04-27T15:37:04.054Z,3.20
2023-04-27T15:39:31.121Z,2.42
2023-04-27T15:42:00.267Z,2.17
2023-04-27T15:44:29.472Z,2.05
2023-04-27T15:46:59.864Z,2.33
2023-04-27T15:49:27.284Z,2.80
2023-04-27T15:51:55.364Z,3.60
2023-04-27T15:54:22.347Z,3.25
2023-04-27T15:56:49.354Z,4.22
2023-04-27T15:59:16.754Z,3.42
2023-04-27T16:01:44.265Z,3.30
2023-04-27T16:04:11.192Z,3.38
2023-04-27T16:06:38.894Z,4.22
2023-04-27T16:09:09.807Z,3.78
2023-04-27T16:11:37.648Z,3.83
2023-04-27T16:14:04.731Z,3.53
2023-04-27T16:16:32.351Z,4.55
2023-04-27T16:18:59.527Z,3.95
2023-04-27T16:21:28.184Z,3.78
2023-04-27T16:23:54.969Z,3.70
2023-04-27T16:26:22.232Z,4.10
2023-04-27T16:28:49.214Z,4.47
2023-04-27T16:31:16.355Z,5.38
2023-04-27T16:33:43.193Z,5.15
2023-04-27T16:36:11.290Z,5.95
2023-04-27T16:38:39.353Z,7.03
2023-04-27T16:41:06.553Z,8.00
2023-04-27T16:43:33.995Z,9.57
2023-04-27T16:46:01.337Z,7.53
2023-04-27T16:48:28.653Z,7.40
2023-04-27T16:50:56.367Z,6.07
2023-04-27T16:53:23.891Z,5.43
2023-04-27T16:55:50.842Z,5.70
2023-04-27T16:58:17.757Z,4.53
2023-04-27T17:00:44.745Z,5.28
2023-04-27T17:03:12.307Z,5.55
2023-04-27T17:05:39.434Z,5.25
2023-04-27T17:08:06.621Z,4.93
2023-04-27T17:10:33.470Z,4.97
2023-04-27T17:13:00.502Z,6.70
2023-04-27T17:15:28.925Z,6.03
2023-04-27T17:17:56.385Z,6.45
2023-04-27T17:20:23.583Z,6.65
2023-04-27T17:22:50.620Z,8.02
2023-04-27T17:25:18.005Z,9.48
2023-04-27T17:27:44.861Z,11.52
2023-04-27T17:30:12.337Z,13.30
2023-04-27T17:32:39.290Z,14.90
2023-04-27T17:35:06.684Z,20.63
2023-04-27T17:37:33.498Z,23.50
2023-04-27T17:40:00.573Z,28.75
2023-04-27T17:42:27.397Z,25.48
2023-04-27T17:44:55.593Z,26.05
2023-04-27T17:47:25.388Z,24.55
2023-04-27T17:49:52.513Z,22.25
2023-04-27T17:52:19.674Z,26.48
2023-04-27T17:54:46.842Z,27.38
2023-04-27T17:57:13.850Z,22.15
2023-04-27T17:59:41.373Z,18.00
2023-04-27T18:02:08.966Z,11.82
2023-04-27T18:04:36.674Z,12.45
2023-04-27T18:07:03.909Z,15.27
2023-04-27T18:09:32.947Z,15.60
2023-04-27T18:12:00.771Z,15.07
2023-04-27T18:14:27.710Z,13.00
2023-04-27T18:16:55.157Z,12.93
2023-04-27T18:19:22.677Z,12.07
2023-04-27T18:21:49.685Z,10.73
2023-04-27T18:24:16.513Z,9.30
2023-04-27T18:26:43.641Z,9.98
2023-04-27T18:29:10.660Z,9.50
2023-04-27T18:31:38.180Z,6.57
2023-04-27T18:34:05.268Z,5.50
2023-04-27T18:36:32.404Z,5.13
2023-04-27T18:39:00.356Z,5.82
2023-04-27T18:41:27.538Z,7.13
2023-04-27T18:43:54.429Z,7.03
2023-04-27T18:46:21.478Z,6.63
2023-04-27T18:48:48.831Z,5.47
2023-04-27T18:51:15.738Z,5.45
2023-04-27T18:53:42.659Z,6.95
2023-04-27T18:56:10.445Z,7.25
2023-04-27T18:58:37.450Z,6.30
2023-04-27T19:01:04.534Z,6.38
2023-04-27T19:03:32.053Z,8.13
2023-04-27T19:05:59.405Z,8.02
2023-04-27T19:08:26.290Z,9.25
2023-04-27T19:10:53.398Z,10.38
2023-04-27T19:13:20.184Z,10.52
2023-04-27T19:15:47.153Z,10.77
2023-04-27T19:18:13.994Z,19.48
2023-04-27T19:20:52.904Z,17.38
2023-04-27T19:23:20.020Z,16.90
2023-04-27T19:25:48.428Z,19.30
2023-04-27T19:28:19.506Z,12.95
2023-04-27T19:30:47.601Z,15.70
2023-04-27T19:33:15.339Z,13.40
2023-04-27T19:35:42.940Z,15.10
2023-04-27T19:38:10.199Z,16.20
2023-04-27T19:40:37.730Z,18.00
2023-04-27T19:43:07.061Z,14.73
2023-04-27T19:45:34.373Z,17.13
2023-04-27T19:48:01.301Z,16.15
2023-04-27T19:50:28.426Z,16.25
2023-04-27T19:52:55.207Z,30.45
2023-04-27T19:55:22.148Z,32.58
2023-04-27T19:57:49.001Z,19.90
2023-04-27T20:00:16.227Z,9.93
2023-04-27T20:02:43.336Z,8.65
2023-04-27T20:05:11.572Z,11.25
2023-04-27T20:07:38.566Z,11.32
2023-04-27T20:10:05.890Z,12.75
2023-04-27T20:12:51.358Z,11.18
2023-04-27T20:15:27.028Z,13.80
2023-04-27T20:18:14.535Z,14.38
2023-04-27T20:20:42.071Z,14.07
2023-04-27T20:23:18.852Z,13.65
2023-04-27T20:25:46.171Z,17.52
2023-04-27T20:28:12.997Z,14.73
2023-04-27T20:30:40.151Z,15.63
2023-04-27T20:33:07.252Z,15.02
2023-04-27T20:36:09.871Z,17.42
2023-04-27T20:38:44.116Z,16.40
2023-04-27T20:41:12.550Z,16.08
2023-04-27T20:43:40.197Z,12.13
2023-04-27T20:46:08.322Z,11.73
2023-04-27T20:48:35.546Z,12.13
2023-04-27T20:51:02.659Z,11.98
2023-04-27T20:53:29.912Z,13.82
2023-04-27T20:56:14.684Z,14.27
2023-04-27T20:58:41.456Z,13.05
2023-04-27T21:01:20.577Z,13.48
2023-04-27T21:03:50.846Z,13.60
2023-04-27T21:06:18.008Z,15.30
2023-04-27T21:08:44.996Z,14.35
2023-04-27T21:11:12.081Z,14.05
2023-04-27T21:13:39.047Z,14.35
2023-04-27T21:16:06.482Z,13.52
2023-04-27T21:18:33.269Z,14.45
2023-04-27T21:21:00.170Z,14.25
2023-04-27T21:23:27.275Z,13.50
2023-04-27T21:25:54.084Z,13.88
2023-04-27T21:28:21.786Z,13.25
2023-04-27T21:30:48.675Z,14.90
2023-04-27T21:33:15.708Z,14.88
2023-04-27T21:35:42.596Z,14.88
2023-04-27T21:38:09.599Z,15.95
2023-04-27T21:40:36.381Z,13.85
2023-04-27T21:43:03.661Z,14.57
2023-04-27T21:45:30.513Z,16.02
2023-04-27T21:47:57.618Z,17.15
2023-04-27T21:50:24.367Z,20.85
2023-04-27T21:52:51.245Z,22.83
2023-04-27T21:55:18.117Z,30.15
2023-04-27T21:57:45.201Z,31.92
2023-04-27T22:00:15.410Z,35.85
2023-04-27T22:02:45.527Z,36.05
2023-04-27T22:05:12.501Z,35.97
2023-04-27T22:07:39.412Z,33.60
2023-04-27T22:10:06.627Z,31.48
2023-04-27T22:12:33.771Z,22.88
2023-04-27T22:15:01.220Z,25.38
2023-04-27T22:17:28.384Z,19.40
2023-04-27T22:19:55.216Z,18.58
2023-04-27T22:22:22.294Z,20.25
2023-04-27T22:24:49.395Z,19.70
2023-04-27T22:27:16.737Z,19.83
2023-04-27T22:29:43.556Z,20.00
2023-04-27T22:32:10.523Z,19.73
2023-04-27T22:34:37.451Z,16.75
2023-04-27T22:37:04.537Z,17.52
2023-04-27T22:39:32.410Z,12.18
2023-04-27T22:41:59.526Z,12.82
2023-04-27T22:44:26.411Z,13.18
2023-04-27T22:46:53.313Z,8.88
2023-04-27T22:49:20.131Z,11.15
2023-04-27T22:51:47.372Z,7.05
2023-04-27T22:54:15.031Z,7.47
2023-04-27T22:56:42.036Z,6.07
2023-04-27T22:59:09.117Z,3.10
2023-04-27T23:01:36.169Z,4.40
2023-04-27T23:04:03.207Z,5.13
2023-04-27T23:06:30.408Z,5.72
2023-04-27T23:08:57.694Z,4.93
2023-04-27T23:11:26.875Z,5.60
2023-04-27T23:13:54.689Z,6.07
2023-04-27T23:16:21.894Z,5.57
2023-04-27T23:18:48.782Z,5.93
2023-04-27T23:21:16.008Z,5.70
2023-04-27T23:23:43.125Z,9.55
2023-04-27T23:26:14.610Z,7.22
2023-04-27T23:28:41.911Z,4.15
2023-04-27T23:31:09.318Z,6.78
2023-04-27T23:33:36.524Z,6.28
2023-04-27T23:36:04.607Z,5.50
2023-04-27T23:38:31.559Z,6.57
2023-04-27T23:40:58.730Z,5.78
2023-04-27T23:43:26.061Z,5.35
2023-04-27T23:45:53.130Z,5.38
2023-04-27T23:48:20.389Z,6.60
2023-04-27T23:50:47.206Z,6.22
2023-04-27T23:53:14.308Z,6.00
2023-04-27T23:55:41.158Z,6.55
2023-04-27T23:58:08.294Z,5.72
